ADDS TAF Data INFO
IDs: Format: Raw Decoded Include METARs

Data at: 1314 UTC 21 May 2018

KDRO 211253Z AUTO 00000KT 10SM CLR 09/02 A3012 RMK AO2 SLP129 T00890017 $

KDRO 211120Z 2112/2212 11005KT P6SM FEW250
  FM211500 11007KT P6SM FEW200
  FM211800 14010KT P6SM SCT060 BKN110
  FM220200 10008KT P6SM SCT070 BKN100